createdAt,value
2018-06-13T00:00:05.443Z,12.95
2018-06-13T00:01:05.416Z,12.95
2018-06-13T00:02:05.391Z,12.85
2018-06-13T00:03:05.369Z,12.85
2018-06-13T00:04:05.340Z,12.81
2018-06-13T00:05:05.312Z,12.85
2018-06-13T00:06:05.287Z,12.88
2018-06-13T00:07:05.261Z,12.77
2018-06-13T00:08:05.236Z,12.87
2018-06-13T00:09:05.218Z,12.79
2018-06-13T00:10:05.183Z,12.77
2018-06-13T00:11:05.156Z,12.79
2018-06-13T00:12:05.130Z,12.80
2018-06-13T00:13:05.106Z,12.84
2018-06-13T00:14:05.080Z,12.84
2018-06-13T00:15:05.062Z,12.95
2018-06-13T00:16:05.042Z,12.92
2018-06-13T00:17:05.000Z,12.99
2018-06-13T00:18:04.976Z,13.03
2018-06-13T00:19:04.948Z,12.89
2018-06-13T00:20:04.923Z,12.84
2018-06-13T00:21:04.900Z,12.79
2018-06-13T00:22:04.870Z,12.85
2018-06-13T00:23:04.844Z,12.84
2018-06-13T00:24:04.820Z,12.87
2018-06-13T00:25:04.794Z,12.91
2018-06-13T00:26:04.767Z,12.96
2018-06-13T00:27:04.740Z,12.85
2018-06-13T00:28:04.719Z,12.77
2018-06-13T00:29:04.689Z,12.70
2018-06-13T00:30:04.662Z,12.80
2018-06-13T00:31:04.648Z,12.73
2018-06-13T00:32:04.610Z,12.74
2018-06-13T00:33:04.588Z,12.63
2018-06-13T00:34:04.560Z,12.71
2018-06-13T00:35:04.533Z,12.71
2018-06-13T00:36:04.509Z,12.71
2018-06-13T00:37:04.544Z,12.70
2018-06-13T00:38:04.457Z,12.63
2018-06-13T00:39:04.432Z,12.56
2018-06-13T00:40:04.403Z,12.71
2018-06-13T00:41:04.375Z,12.69
2018-06-13T00:42:04.351Z,12.63
2018-06-13T00:43:04.327Z,12.61
2018-06-13T00:44:04.297Z,12.59
2018-06-13T00:45:04.270Z,12.55
2018-06-13T00:46:04.244Z,12.56
2018-06-13T00:47:04.291Z,12.55
2018-06-13T00:48:04.195Z,12.44
2018-06-13T00:49:04.165Z,12.52
2018-06-13T00:50:04.144Z,12.66
2018-06-13T00:51:04.113Z,12.61
2018-06-13T00:52:04.092Z,12.56
2018-06-13T00:53:04.060Z,12.59
2018-06-13T00:54:04.034Z,12.67
2018-06-13T00:55:04.012Z,12.70
2018-06-13T00:56:03.983Z,12.77
2018-06-13T00:57:03.956Z,12.62
2018-06-13T00:58:03.929Z,12.59
2018-06-13T00:59:03.903Z,12.70
2018-06-13T01:00:03.878Z,12.73
2018-06-13T01:01:03.850Z,12.73
2018-06-13T01:02:03.825Z,12.69
2018-06-13T01:03:03.803Z,12.70
2018-06-13T01:04:03.772Z,12.70
2018-06-13T01:05:03.746Z,12.77
2018-06-13T01:06:03.719Z,12.77
2018-06-13T01:07:03.693Z,12.76
2018-06-13T01:08:03.668Z,12.87
2018-06-13T01:09:03.640Z,12.79
2018-06-13T01:10:03.615Z,12.79
2018-06-13T01:11:03.591Z,12.84
2018-06-13T01:12:03.564Z,12.76
2018-06-13T01:13:03.552Z,12.77
2018-06-13T01:14:03.509Z,12.71
2018-06-13T01:15:03.489Z,12.74
2018-06-13T01:16:03.458Z,12.77
2018-06-13T01:17:03.432Z,12.87
2018-06-13T01:18:03.407Z,12.87
2018-06-13T01:19:03.379Z,12.94
2018-06-13T01:20:03.353Z,12.96
2018-06-13T01:21:03.333Z,12.91
2018-06-13T01:22:03.300Z,12.94
2018-06-13T01:23:03.274Z,12.88
2018-06-13T01:24:03.249Z,12.87
2018-06-13T01:25:03.221Z,12.84
2018-06-13T01:26:03.195Z,12.76
2018-06-13T01:27:03.169Z,12.79
2018-06-13T01:28:03.143Z,12.84
2018-06-13T01:29:03.117Z,12.77
2018-06-13T01:30:03.094Z,12.74
2018-06-13T01:31:03.065Z,12.79
2018-06-13T01:32:03.041Z,12.74
2018-06-13T01:33:03.054Z,12.70
2018-06-13T01:34:02.986Z,12.70
2018-06-13T01:35:02.960Z,12.69
2018-06-13T01:36:02.939Z,12.70
2018-06-13T01:37:02.907Z,12.70
2018-06-13T01:38:02.881Z,12.73
2018-06-13T01:39:02.856Z,12.76
2018-06-13T01:40:02.982Z,12.80
2018-06-13T01:41:02.802Z,12.81
2018-06-13T01:42:02.778Z,12.77
2018-06-13T01:43:02.752Z,12.73
2018-06-13T01:44:02.724Z,12.81
2018-06-13T01:45:02.705Z,12.92
2018-06-13T01:46:02.670Z,12.95
2018-06-13T01:47:02.654Z,13.01
2018-06-13T01:48:02.626Z,12.98
2018-06-13T01:49:02.592Z,12.96
2018-06-13T01:50:02.566Z,12.89
2018-06-13T01:51:02.540Z,13.01
2018-06-13T01:52:02.515Z,12.99
2018-06-13T01:53:02.487Z,12.95
2018-06-13T01:54:02.461Z,12.95
2018-06-13T01:55:02.441Z,12.96
2018-06-13T01:56:02.408Z,13.09
2018-06-13T01:57:02.381Z,13.09
2018-06-13T01:58:02.356Z,12.99
2018-06-13T01:59:02.330Z,13.07
2018-06-13T02:00:02.305Z,13.04
2018-06-13T02:01:02.279Z,13.09
2018-06-13T02:02:02.260Z,13.06
2018-06-13T02:03:02.227Z,13.13
2018-06-13T02:04:02.202Z,13.09
2018-06-13T02:05:02.178Z,13.09
2018-06-13T02:06:02.150Z,13.10
2018-06-13T02:07:02.174Z,13.07
2018-06-13T02:08:02.096Z,13.07
2018-06-13T02:09:02.068Z,13.10
2018-06-13T02:10:02.043Z,13.17
2018-06-13T02:11:02.017Z,13.10
2018-06-13T02:12:01.991Z,13.09
2018-06-13T02:13:01.965Z,13.10
2018-06-13T02:14:01.942Z,13.09
2018-06-13T02:15:01.928Z,13.12
2018-06-13T02:16:01.888Z,13.13
2018-06-13T02:17:01.859Z,13.19
2018-06-13T02:18:01.834Z,13.10
2018-06-13T02:19:01.808Z,13.12
2018-06-13T02:20:01.782Z,13.14
2018-06-13T02:21:01.756Z,13.21
2018-06-13T02:22:01.738Z,13.21
2018-06-13T02:23:01.703Z,13.12
2018-06-13T02:24:01.677Z,13.09
2018-06-13T02:25:01.654Z,13.17
2018-06-13T02:26:01.625Z,13.14
2018-06-13T02:27:01.599Z,13.12
2018-06-13T02:28:01.577Z,13.04
2018-06-13T02:29:01.548Z,13.10
2018-06-13T02:30:01.527Z,13.13
2018-06-13T02:31:01.500Z,13.19
2018-06-13T02:32:01.471Z,13.17
2018-06-13T02:33:01.446Z,13.10
2018-06-13T02:34:01.417Z,13.19
2018-06-13T02:35:01.391Z,13.14
2018-06-13T02:36:01.365Z,13.17
2018-06-13T02:37:01.338Z,13.14
2018-06-13T02:38:01.321Z,13.17
2018-06-13T02:39:01.338Z,13.16
2018-06-13T02:40:01.267Z,13.16
2018-06-13T02:41:01.236Z,13.28
2018-06-13T02:42:01.212Z,13.35
2018-06-13T02:43:01.186Z,13.32
2018-06-13T02:44:01.157Z,13.35
2018-06-13T02:45:01.132Z,13.38
2018-06-13T02:46:01.107Z,13.27
2018-06-13T02:47:01.078Z,13.38
2018-06-13T02:48:01.054Z,13.27
2018-06-13T02:49:01.027Z,13.29
2018-06-13T02:50:01.000Z,13.35
2018-06-13T02:51:00.975Z,13.32
2018-06-13T02:52:00.957Z,13.29
2018-06-13T02:53:00.922Z,13.24
2018-06-13T02:54:00.899Z,13.29
2018-06-13T02:55:00.870Z,13.32
2018-06-13T02:56:00.845Z,13.39
2018-06-13T02:57:00.819Z,13.47
2018-06-13T02:58:00.805Z,13.47
2018-06-13T02:59:00.769Z,13.44
2018-06-13T03:00:00.742Z,13.43
2018-06-13T03:01:00.714Z,13.43
2018-06-13T03:02:00.689Z,13.38
2018-06-13T03:03:00.665Z,13.36
2018-06-13T03:04:00.637Z,13.32
2018-06-13T03:05:00.616Z,13.35
2018-06-13T03:06:00.589Z,13.35
2018-06-13T03:07:00.561Z,13.35
2018-06-13T03:08:00.534Z,13.27
2018-06-13T03:09:00.508Z,13.31
2018-06-13T03:10:00.503Z,13.29
2018-06-13T03:11:00.459Z,13.29
2018-06-13T03:12:00.431Z,13.32
2018-06-13T03:13:00.410Z,13.29
2018-06-13T03:14:00.378Z,13.31
2018-06-13T03:15:00.353Z,13.29
2018-06-13T03:16:00.331Z,13.36
2018-06-13T03:17:00.300Z,13.36
2018-06-13T03:18:00.275Z,13.32
2018-06-13T03:19:00.249Z,13.38
2018-06-13T03:20:00.228Z,13.36
2018-06-13T03:21:00.198Z,13.32
2018-06-13T03:22:00.171Z,13.31
2018-06-13T03:23:00.145Z,13.36
2018-06-13T03:24:00.128Z,13.47
2018-06-13T03:25:00.095Z,13.46
2018-06-13T03:26:00.072Z,13.51
2018-06-13T03:27:00.051Z,13.47
2018-06-13T03:28:00.021Z,13.48
2018-06-13T03:28:59.990Z,13.41
2018-06-13T03:29:59.965Z,13.51
2018-06-13T03:30:59.941Z,13.50
2018-06-13T03:31:59.914Z,13.55
2018-06-13T03:32:59.888Z,13.53
2018-06-13T03:33:59.866Z,13.61
2018-06-13T03:34:59.836Z,13.48
2018-06-13T03:35:59.812Z,13.47
2018-06-13T03:36:59.787Z,13.48
2018-06-13T03:37:59.758Z,13.47
2018-06-13T03:38:59.736Z,13.41
2018-06-13T03:39:59.709Z,13.41
2018-06-13T03:40:59.712Z,13.57
2018-06-13T03:41:59.655Z,13.47
2018-06-13T03:42:59.630Z,13.46
2018-06-13T03:43:59.604Z,13.53
2018-06-13T03:44:59.583Z,13.41
2018-06-13T03:45:59.552Z,13.51
2018-06-13T03:46:59.526Z,13.48
2018-06-13T03:47:59.500Z,13.50
2018-06-13T03:48:59.474Z,13.50
2018-06-13T03:49:59.449Z,13.62
2018-06-13T03:50:59.423Z,13.65
2018-06-13T03:51:59.401Z,13.66
2018-06-13T03:52:59.372Z,13.62
2018-06-13T03:53:59.350Z,13.65
2018-06-13T03:54:59.321Z,13.65
2018-06-13T03:55:59.297Z,13.68
2018-06-13T03:56:59.271Z,13.76
2018-06-13T03:57:59.244Z,13.69
2018-06-13T03:58:59.218Z,13.57
2018-06-13T03:59:59.193Z,13.59
2018-06-13T04:00:59.179Z,13.65
2018-06-13T04:01:59.140Z,13.61
2018-06-13T04:02:59.116Z,13.55
2018-06-13T04:03:59.089Z,13.54
2018-06-13T04:04:59.063Z,13.55
2018-06-13T04:05:59.039Z,13.68
2018-06-13T04:06:59.014Z,13.59
2018-06-13T04:07:58.993Z,13.61
2018-06-13T04:08:58.960Z,13.61
2018-06-13T04:09:58.935Z,13.55
2018-06-13T04:10:58.913Z,13.72
2018-06-13T04:11:58.886Z,13.75
2018-06-13T04:12:58.852Z,13.69
2018-06-13T04:13:58.827Z,13.68
2018-06-13T04:14:58.809Z,13.73
2018-06-13T04:15:58.784Z,13.80
2018-06-13T04:16:58.756Z,13.80
2018-06-13T04:17:58.723Z,13.76
2018-06-13T04:18:58.909Z,13.88
2018-06-13T04:19:58.674Z,13.80
2018-06-13T04:20:58.651Z,13.80
2018-06-13T04:21:58.624Z,13.87
2018-06-13T04:22:58.595Z,13.86
2018-06-13T04:23:58.579Z,13.88
2018-06-13T04:24:58.543Z,13.91
2018-06-13T04:25:58.518Z,13.90
2018-06-13T04:26:58.494Z,13.79
2018-06-13T04:27:58.468Z,13.90
2018-06-13T04:28:58.441Z,13.88
2018-06-13T04:29:58.417Z,13.91
2018-06-13T04:30:58.391Z,13.87
2018-06-13T04:31:58.365Z,13.87
2018-06-13T04:32:58.340Z,13.88
2018-06-13T04:33:58.313Z,13.86
2018-06-13T04:34:58.290Z,13.86
2018-06-13T04:35:58.264Z,13.86
2018-06-13T04:36:58.237Z,13.90
2018-06-13T04:37:58.212Z,13.84
2018-06-13T04:38:58.187Z,13.90
2018-06-13T04:39:58.162Z,13.87
2018-06-13T04:40:58.136Z,13.96
2018-06-13T04:41:58.115Z,13.94
2018-06-13T04:42:58.086Z,13.90
2018-06-13T04:43:58.061Z,13.96
2018-06-13T04:44:58.034Z,14.02
2018-06-13T04:45:58.010Z,13.96
2018-06-13T04:46:57.985Z,13.98
2018-06-13T04:47:57.961Z,13.94
2018-06-13T04:48:57.932Z,14.02
2018-06-13T04:49:57.907Z,13.94
2018-06-13T04:50:57.882Z,13.96
2018-06-13T04:51:57.857Z,14.09
2018-06-13T04:52:57.831Z,14.08
2018-06-13T04:53:57.806Z,14.04
2018-06-13T04:54:57.781Z,14.05
2018-06-13T04:55:57.757Z,14.16
2018-06-13T04:56:57.730Z,14.13
2018-06-13T04:57:57.705Z,14.20
2018-06-13T04:58:57.689Z,14.29
2018-06-13T04:59:57.660Z,14.19
2018-06-13T05:00:57.630Z,14.27
2018-06-13T05:01:57.607Z,14.29
2018-06-13T05:02:57.786Z,14.29
2018-06-13T05:03:57.553Z,14.31
2018-06-13T05:04:57.527Z,14.34
2018-06-13T05:05:57.505Z,14.34
2018-06-13T05:06:57.481Z,14.34
2018-06-13T05:07:57.452Z,14.38
2018-06-13T05:08:57.430Z,14.29
2018-06-13T05:09:57.402Z,14.31
2018-06-13T05:10:57.376Z,14.39
2018-06-13T05:11:57.352Z,14.30
2018-06-13T05:12:57.329Z,14.30
2018-06-13T05:13:57.300Z,14.41
2018-06-13T05:14:57.275Z,14.41
2018-06-13T05:15:57.252Z,14.46
2018-06-13T05:16:57.224Z,14.41
2018-06-13T05:17:57.199Z,14.48
2018-06-13T05:18:57.174Z,14.52
2018-06-13T05:19:57.153Z,14.56
2018-06-13T05:20:57.131Z,14.54
2018-06-13T05:21:57.098Z,14.57
2018-06-13T05:22:57.075Z,14.59
2018-06-13T05:23:57.053Z,14.59
2018-06-13T05:24:57.022Z,14.72
2018-06-13T05:25:57.001Z,14.66
2018-06-13T05:26:56.974Z,14.66
2018-06-13T05:27:56.948Z,14.71
2018-06-13T05:28:56.923Z,14.80
2018-06-13T05:29:56.904Z,14.82
2018-06-13T05:30:56.876Z,14.67
2018-06-13T05:31:56.849Z,14.87
2018-06-13T05:32:56.838Z,14.86
2018-06-13T05:33:56.832Z,14.91
2018-06-13T05:34:56.778Z,14.87
2018-06-13T05:35:56.750Z,14.91
2018-06-13T05:36:56.723Z,14.93
2018-06-13T05:37:56.700Z,14.91
2018-06-13T05:38:56.675Z,14.93
2018-06-13T05:39:56.656Z,14.85
2018-06-13T05:40:56.628Z,14.83
2018-06-13T05:41:56.606Z,14.90
2018-06-13T05:42:56.583Z,14.93
2018-06-13T05:43:56.603Z,14.91
2018-06-13T05:44:56.537Z,14.90
2018-06-13T05:45:56.508Z,14.90
2018-06-13T05:46:56.480Z,15.01
2018-06-13T05:47:56.456Z,15.05
2018-06-13T05:48:56.430Z,14.97
2018-06-13T05:49:56.406Z,15.01
2018-06-13T05:50:56.383Z,15.07
2018-06-13T05:51:56.360Z,15.18
2018-06-13T05:52:56.334Z,15.16
2018-06-13T05:53:56.310Z,15.25
2018-06-13T05:54:56.339Z,15.22
2018-06-13T05:55:56.262Z,15.44
2018-06-13T05:56:56.236Z,15.40
2018-06-13T05:57:56.213Z,15.68
2018-06-13T05:58:56.188Z,15.68
2018-06-13T05:59:56.165Z,15.52
2018-06-13T06:00:56.141Z,15.52
2018-06-13T06:01:56.117Z,15.58
2018-06-13T06:02:56.094Z,15.52
2018-06-13T06:03:56.070Z,15.28
2018-06-13T06:04:56.045Z,15.38
2018-06-13T06:05:56.022Z,15.38
2018-06-13T06:06:55.998Z,15.43
2018-06-13T06:07:55.976Z,15.60
2018-06-13T06:08:55.953Z,15.59
2018-06-13T06:09:55.928Z,15.70
2018-06-13T06:10:55.904Z,15.80
2018-06-13T06:11:55.881Z,15.73
2018-06-13T06:12:55.856Z,15.66
2018-06-13T06:13:55.833Z,15.78
2018-06-13T06:14:55.810Z,15.77
2018-06-13T06:15:55.789Z,15.67
2018-06-13T06:16:55.763Z,15.62
2018-06-13T06:17:55.739Z,15.68
2018-06-13T06:18:55.716Z,15.46
2018-06-13T06:19:55.694Z,15.40
2018-06-13T06:20:55.669Z,15.40
2018-06-13T06:21:55.654Z,15.44
2018-06-13T06:22:55.622Z,15.56
2018-06-13T06:23:55.601Z,15.34
2018-06-13T06:24:55.576Z,15.43
2018-06-13T06:25:55.554Z,15.60
2018-06-13T06:26:55.537Z,15.64
2018-06-13T06:27:55.507Z,15.70
2018-06-13T06:28:55.482Z,15.68
2018-06-13T06:29:55.462Z,15.56
2018-06-13T06:30:55.437Z,15.71
2018-06-13T06:31:55.414Z,15.86
2018-06-13T06:32:55.390Z,15.99
2018-06-13T06:33:55.367Z,15.93
2018-06-13T06:34:55.348Z,15.81
2018-06-13T06:35:55.321Z,15.85
2018-06-13T06:36:55.310Z,15.89
2018-06-13T06:37:55.274Z,16.01
2018-06-13T06:38:55.252Z,15.99
2018-06-13T06:39:55.229Z,16.08
2018-06-13T06:40:55.206Z,16.62
2018-06-13T06:41:55.183Z,17.38
2018-06-13T06:42:55.160Z,18.51
2018-06-13T06:43:55.137Z,18.47
2018-06-13T06:44:55.316Z,18.36
2018-06-13T06:45:55.092Z,18.65
2018-06-13T06:46:55.070Z,19.34
2018-06-13T06:47:55.067Z,18.35
2018-06-13T06:48:55.030Z,17.95
2018-06-13T06:49:55.034Z,18.32
2018-06-13T06:50:54.988Z,17.99
2018-06-13T06:51:54.966Z,17.94
2018-06-13T06:52:54.945Z,17.66
2018-06-13T06:53:54.926Z,17.71
2018-06-13T06:54:54.904Z,17.54
2018-06-13T06:55:54.884Z,17.92
2018-06-13T06:56:54.863Z,17.92
2018-06-13T06:57:54.845Z,18.26
2018-06-13T06:58:54.824Z,17.84
2018-06-13T06:59:54.806Z,17.62
2018-06-13T07:00:54.784Z,17.49
2018-06-13T07:01:54.764Z,17.60
2018-06-13T07:02:54.745Z,17.58
2018-06-13T07:03:54.745Z,17.94
2018-06-13T07:04:54.704Z,17.39
2018-06-13T07:05:54.687Z,17.07
2018-06-13T07:06:54.665Z,16.91
2018-06-13T07:07:54.657Z,16.70
2018-06-13T07:08:54.628Z,16.63
2018-06-13T07:09:54.607Z,16.70
2018-06-13T07:10:54.588Z,16.50
2018-06-13T07:11:54.564Z,16.36
2018-06-13T07:12:54.544Z,16.14
2018-06-13T07:13:54.522Z,16.22
2018-06-13T07:14:54.501Z,16.18
2018-06-13T07:15:54.482Z,16.36
2018-06-13T07:16:54.459Z,16.45
2018-06-13T07:17:54.438Z,16.36
2018-06-13T07:18:54.455Z,16.23
2018-06-13T07:19:54.395Z,16.26
2018-06-13T07:20:54.374Z,16.26
2018-06-13T07:21:54.351Z,16.18
2018-06-13T07:22:54.332Z,16.27
2018-06-13T07:23:54.308Z,16.36
2018-06-13T07:24:54.287Z,16.32
2018-06-13T07:25:54.264Z,16.22
2018-06-13T07:26:54.242Z,16.29
2018-06-13T07:27:54.221Z,16.33
2018-06-13T07:28:54.196Z,16.54
2018-06-13T07:29:54.175Z,16.66
2018-06-13T07:30:54.184Z,16.65
2018-06-13T07:31:54.130Z,16.66
2018-06-13T07:32:54.108Z,16.67
2018-06-13T07:33:54.091Z,16.69
2018-06-13T07:34:54.066Z,16.36
2018-06-13T07:35:54.044Z,16.22
2018-06-13T07:36:54.017Z,16.45
2018-06-13T07:37:54.005Z,16.59
2018-06-13T07:38:53.974Z,16.66
2018-06-13T07:39:53.952Z,16.70
2018-06-13T07:40:53.928Z,16.63
2018-06-13T07:41:53.907Z,16.78
2018-06-13T07:42:53.903Z,16.98
2018-06-13T07:43:53.864Z,17.07
2018-06-13T07:44:53.841Z,17.20
2018-06-13T07:45:53.824Z,17.21
2018-06-13T07:46:53.800Z,17.45
2018-06-13T07:47:53.776Z,17.60
2018-06-13T07:48:53.753Z,17.71
2018-06-13T07:49:53.738Z,17.77
2018-06-13T07:50:53.718Z,18.44
2018-06-13T07:51:53.690Z,19.20
2018-06-13T07:52:53.673Z,18.29
2018-06-13T07:53:53.651Z,18.01
2018-06-13T07:54:53.626Z,17.87
2018-06-13T07:55:53.607Z,17.68
2018-06-13T07:56:53.584Z,17.51
2018-06-13T07:57:53.564Z,17.46
2018-06-13T07:58:53.545Z,17.36
2018-06-13T07:59:53.548Z,17.45
2018-06-13T08:00:53.504Z,17.38
2018-06-13T08:01:53.483Z,17.73
2018-06-13T08:02:53.462Z,17.81
2018-06-13T08:03:53.441Z,17.65
2018-06-13T08:04:53.426Z,17.49
2018-06-13T08:05:53.406Z,17.68
2018-06-13T08:06:53.381Z,17.46
2018-06-13T08:07:53.361Z,17.47
2018-06-13T08:08:53.397Z,17.17
2018-06-13T08:09:53.319Z,16.87
2018-06-13T08:10:53.299Z,17.14
2018-06-13T08:11:53.278Z,17.28
2018-06-13T08:12:53.258Z,17.21
2018-06-13T08:13:53.245Z,17.21
2018-06-13T08:14:53.217Z,17.17
2018-06-13T08:15:53.199Z,17.24
2018-06-13T08:16:53.208Z,17.20
2018-06-13T08:17:53.163Z,17.35
2018-06-13T08:18:53.137Z,17.24
2018-06-13T08:19:53.109Z,17.40
2018-06-13T08:20:53.090Z,17.38
2018-06-13T08:21:53.067Z,17.55
2018-06-13T08:22:53.049Z,17.51
2018-06-13T08:23:53.066Z,17.84
2018-06-13T08:24:53.005Z,17.91
2018-06-13T08:25:52.984Z,17.68
2018-06-13T08:26:52.963Z,17.65
2018-06-13T08:27:52.941Z,17.55
2018-06-13T08:28:52.922Z,17.96
2018-06-13T08:29:52.901Z,18.42
2018-06-13T08:30:52.878Z,18.50
2018-06-13T08:31:52.859Z,18.42
2018-06-13T08:32:52.837Z,18.34
2018-06-13T08:33:52.817Z,18.29
2018-06-13T08:34:52.798Z,18.91
2018-06-13T08:35:52.778Z,18.36
2018-06-13T08:36:52.756Z,18.44
2018-06-13T08:37:52.737Z,18.36
2018-06-13T08:38:52.728Z,18.31
2018-06-13T08:39:52.723Z,18.28
2018-06-13T08:40:52.683Z,18.31
2018-06-13T08:41:52.656Z,18.16
2018-06-13T08:42:52.638Z,18.25
2018-06-13T08:43:52.632Z,18.17
2018-06-13T08:44:52.598Z,18.16
2018-06-13T08:45:52.583Z,17.89
2018-06-13T08:46:52.558Z,17.79
2018-06-13T08:47:52.538Z,17.57
2018-06-13T08:48:52.517Z,17.49
2018-06-13T08:49:52.509Z,17.38
2018-06-13T08:50:52.477Z,17.45
2018-06-13T08:51:52.457Z,17.49
2018-06-13T08:52:52.436Z,17.62
2018-06-13T08:53:52.415Z,17.51
2018-06-13T08:54:52.396Z,17.57
2018-06-13T08:55:52.376Z,17.71
2018-06-13T08:56:52.358Z,17.77
2018-06-13T08:57:52.334Z,18.38
2018-06-13T08:58:52.313Z,18.28
2018-06-13T08:59:52.295Z,18.26
2018-06-13T09:00:52.271Z,18.68
2018-06-13T09:01:52.251Z,18.87
2018-06-13T09:02:52.234Z,18.79
2018-06-13T09:03:52.211Z,18.74
2018-06-13T09:04:52.190Z,18.82
2018-06-13T09:05:52.173Z,18.62
2018-06-13T09:06:52.152Z,18.32
2018-06-13T09:07:52.131Z,18.09
2018-06-13T09:08:52.113Z,18.26
2018-06-13T09:09:52.096Z,18.31
2018-06-13T09:10:52.077Z,18.71
2018-06-13T09:11:52.064Z,18.54
2018-06-13T09:12:52.029Z,19.09
2018-06-13T09:13:52.015Z,19.05
2018-06-13T09:14:52.026Z,18.87
2018-06-13T09:15:51.976Z,18.87
2018-06-13T09:16:51.961Z,18.47
2018-06-13T09:17:51.936Z,18.64
2018-06-13T09:18:51.918Z,18.59
2018-06-13T09:19:51.900Z,18.54
2018-06-13T09:20:51.874Z,18.78
2018-06-13T09:21:51.858Z,19.17
2018-06-13T09:22:51.857Z,19.24
2018-06-13T09:23:51.817Z,19.02
2018-06-13T09:24:51.797Z,18.75
2018-06-13T09:25:51.778Z,18.53
2018-06-13T09:26:51.760Z,18.54
2018-06-13T09:27:51.741Z,18.42
2018-06-13T09:28:51.720Z,18.17
2018-06-13T09:29:51.719Z,18.16
2018-06-13T09:30:51.683Z,17.95
2018-06-13T09:31:51.664Z,18.07
2018-06-13T09:32:51.644Z,18.17
2018-06-13T09:33:51.646Z,18.26
2018-06-13T09:34:51.607Z,18.31
2018-06-13T09:35:51.586Z,18.44
2018-06-13T09:36:51.566Z,18.59
2018-06-13T09:37:51.548Z,18.72
2018-06-13T09:38:51.531Z,18.34
2018-06-13T09:39:51.512Z,18.38
2018-06-13T09:40:51.488Z,18.05
2018-06-13T09:41:51.468Z,18.17
2018-06-13T09:42:51.453Z,18.29
2018-06-13T09:43:51.429Z,18.38
2018-06-13T09:44:51.407Z,17.99
2018-06-13T09:45:51.389Z,18.20
2018-06-13T09:46:51.369Z,18.25
2018-06-13T09:47:51.352Z,18.36
2018-06-13T09:48:51.329Z,18.34
2018-06-13T09:49:51.309Z,19.09
2018-06-13T09:50:51.289Z,19.34
2018-06-13T09:51:51.269Z,19.62
2018-06-13T09:52:51.249Z,19.25
2018-06-13T09:53:51.230Z,19.20
2018-06-13T09:54:51.264Z,19.13
2018-06-13T09:55:51.395Z,19.30
2018-06-13T09:56:51.237Z,19.76
2018-06-13T09:57:51.154Z,20.13
2018-06-13T09:58:51.135Z,20.64
2018-06-13T09:59:51.118Z,20.22
2018-06-13T10:00:51.098Z,19.65
2018-06-13T10:01:51.090Z,19.13
2018-06-13T10:02:51.068Z,19.06
2018-06-13T10:03:51.046Z,18.94
2018-06-13T10:04:51.030Z,19.07
2018-06-13T10:05:51.019Z,19.35
2018-06-13T10:06:50.994Z,19.30
2018-06-13T10:07:50.979Z,19.16
2018-06-13T10:08:50.961Z,19.01
2018-06-13T10:09:50.940Z,18.75
2018-06-13T10:10:50.932Z,18.68
2018-06-13T10:11:50.911Z,18.60
2018-06-13T10:12:50.885Z,18.53
2018-06-13T10:13:50.867Z,18.41
2018-06-13T10:14:50.916Z,18.56
2018-06-13T10:15:50.832Z,18.41
2018-06-13T10:16:50.811Z,18.51
2018-06-13T10:17:50.798Z,18.54
2018-06-13T10:18:50.774Z,18.44
2018-06-13T10:19:50.757Z,18.07
2018-06-13T10:20:50.745Z,18.01
2018-06-13T10:21:50.719Z,18.29
2018-06-13T10:22:50.710Z,18.21
2018-06-13T10:23:50.699Z,18.46
2018-06-13T10:24:50.659Z,18.54
2018-06-13T10:25:50.639Z,18.54
2018-06-13T10:26:50.620Z,18.07
2018-06-13T10:27:50.600Z,18.02
2018-06-13T10:28:50.583Z,17.95
2018-06-13T10:29:50.571Z,17.94
2018-06-13T10:30:50.543Z,17.98
2018-06-13T10:31:50.522Z,17.92
2018-06-13T10:32:50.497Z,18.13
2018-06-13T10:33:50.479Z,17.91
2018-06-13T10:34:50.461Z,17.81
2018-06-13T10:35:50.439Z,17.92
2018-06-13T10:36:50.422Z,17.92
2018-06-13T10:37:50.403Z,18.04
2018-06-13T10:38:50.381Z,17.94
2018-06-13T10:39:50.363Z,18.11
2018-06-13T10:40:50.335Z,18.36
2018-06-13T10:41:50.316Z,18.13
2018-06-13T10:42:50.295Z,18.32
2018-06-13T10:43:50.275Z,18.31
2018-06-13T10:44:50.253Z,18.13
2018-06-13T10:45:50.233Z,18.31
2018-06-13T10:46:50.221Z,18.41
2018-06-13T10:47:50.192Z,18.41
2018-06-13T10:48:50.174Z,18.53
2018-06-13T10:49:50.192Z,18.75
2018-06-13T10:50:50.130Z,19.16
2018-06-13T10:51:50.111Z,19.50
2018-06-13T10:52:50.090Z,19.20
2018-06-13T10:53:50.077Z,19.27
2018-06-13T10:54:50.049Z,19.17
2018-06-13T10:55:50.030Z,19.15
2018-06-13T10:56:50.009Z,19.50
2018-06-13T10:57:49.990Z,19.35
2018-06-13T10:58:49.975Z,19.12
2018-06-13T10:59:49.952Z,19.15
2018-06-13T11:00:49.945Z,19.25
2018-06-13T11:01:49.916Z,18.66
2018-06-13T11:02:49.913Z,18.35
2018-06-13T11:03:49.874Z,18.23
2018-06-13T11:04:49.937Z,18.19
2018-06-13T11:05:49.839Z,18.29
2018-06-13T11:06:49.818Z,18.10
2018-06-13T11:07:49.805Z,17.99
2018-06-13T11:08:49.779Z,18.21
2018-06-13T11:09:49.759Z,18.13
2018-06-13T11:10:49.742Z,17.96
2018-06-13T11:11:49.722Z,18.16
2018-06-13T11:12:49.714Z,18.16
2018-06-13T11:13:49.681Z,18.31
2018-06-13T11:14:49.666Z,18.28
2018-06-13T11:15:49.642Z,18.53
2018-06-13T11:16:49.621Z,18.47
2018-06-13T11:17:49.602Z,18.78
2018-06-13T11:18:49.586Z,18.66
2018-06-13T11:19:49.566Z,18.64
2018-06-13T11:20:49.543Z,18.72
2018-06-13T11:21:49.523Z,18.53
2018-06-13T11:22:49.538Z,18.57
2018-06-13T11:23:49.483Z,18.38
2018-06-13T11:24:49.463Z,17.87
2018-06-13T11:25:49.445Z,17.86
2018-06-13T11:26:49.424Z,17.84
2018-06-13T11:27:49.404Z,17.81
2018-06-13T11:28:49.387Z,17.60
2018-06-13T11:29:49.361Z,17.68
2018-06-13T11:30:49.343Z,17.71
2018-06-13T11:31:49.323Z,17.92
2018-06-13T11:32:49.301Z,18.04
2018-06-13T11:33:49.281Z,18.10
2018-06-13T11:34:49.260Z,18.38
2018-06-13T11:35:49.242Z,19.07
2018-06-13T11:36:49.222Z,19.31
2018-06-13T11:37:49.201Z,19.24
2018-06-13T11:38:49.183Z,18.82
2018-06-13T11:39:49.161Z,18.59
2018-06-13T11:40:49.140Z,17.94
2018-06-13T11:41:49.123Z,18.01
2018-06-13T11:42:49.106Z,17.94
2018-06-13T11:43:49.082Z,17.65
2018-06-13T11:44:49.066Z,17.43
2018-06-13T11:45:49.048Z,17.25
2018-06-13T11:46:49.023Z,17.18
2018-06-13T11:47:49.007Z,17.20
2018-06-13T11:48:48.982Z,17.43
2018-06-13T11:49:48.963Z,17.54
2018-06-13T11:50:48.942Z,17.35
2018-06-13T11:51:48.935Z,17.32
2018-06-13T11:52:48.905Z,17.35
2018-06-13T11:53:48.885Z,17.07
2018-06-13T11:54:48.861Z,17.02
2018-06-13T11:55:48.841Z,17.05
2018-06-13T11:56:48.820Z,17.22
2018-06-13T11:57:48.799Z,17.33
2018-06-13T11:58:48.785Z,17.36
2018-06-13T11:59:48.785Z,17.35
2018-06-13T12:00:48.737Z,17.39
2018-06-13T12:01:48.755Z,17.25
2018-06-13T12:02:48.695Z,16.99
2018-06-13T12:03:48.685Z,17.00
2018-06-13T12:04:48.652Z,16.95
2018-06-13T12:05:48.637Z,16.92
2018-06-13T12:06:48.610Z,16.87
2018-06-13T12:07:48.605Z,17.07
2018-06-13T12:08:48.567Z,16.98
2018-06-13T12:09:48.546Z,17.05
2018-06-13T12:10:48.525Z,16.91
2018-06-13T12:11:48.503Z,16.69
2018-06-13T12:12:48.482Z,16.72
2018-06-13T12:13:48.459Z,16.75
2018-06-13T12:14:48.437Z,16.90
2018-06-13T12:15:48.426Z,16.99
2018-06-13T12:16:48.450Z,17.09
2018-06-13T12:17:48.372Z,17.10
2018-06-13T12:18:48.351Z,16.99
2018-06-13T12:19:48.329Z,17.06
2018-06-13T12:20:48.306Z,17.10
2018-06-13T12:21:48.287Z,17.38
2018-06-13T12:22:48.263Z,17.43
2018-06-13T12:23:48.241Z,17.24
2018-06-13T12:24:48.219Z,17.03
2018-06-13T12:25:48.197Z,16.91
2018-06-13T12:26:48.177Z,16.67
2018-06-13T12:27:48.157Z,16.67
2018-06-13T12:28:48.136Z,16.54
2018-06-13T12:29:48.126Z,16.25
2018-06-13T12:30:48.090Z,16.29
2018-06-13T12:31:48.072Z,16.17
2018-06-13T12:32:48.047Z,16.18
2018-06-13T12:33:48.025Z,16.36
2018-06-13T12:34:48.011Z,16.51
2018-06-13T12:35:47.984Z,16.70
2018-06-13T12:36:47.960Z,16.82
2018-06-13T12:37:47.938Z,17.02
2018-06-13T12:38:47.917Z,17.00
2018-06-13T12:39:47.894Z,16.96
2018-06-13T12:40:47.871Z,17.00
2018-06-13T12:41:47.850Z,17.07
2018-06-13T12:42:47.828Z,17.38
2018-06-13T12:43:47.806Z,17.46
2018-06-13T12:44:47.784Z,17.22
2018-06-13T12:45:47.762Z,17.07
2018-06-13T12:46:47.741Z,17.06
2018-06-13T12:47:47.723Z,16.98
2018-06-13T12:48:47.697Z,16.99
2018-06-13T12:49:47.698Z,17.21
2018-06-13T12:50:47.719Z,17.30
2018-06-13T12:51:47.637Z,17.46